createdAt,value
2018-09-25T00:00:50.545Z,91.7
2018-09-25T00:02:50.450Z,91.9
2018-09-25T00:04:50.748Z,92.0
2018-09-25T00:06:49.891Z,92.0
2018-09-25T00:08:49.937Z,93.2
2018-09-25T00:10:50.071Z,93.8
2018-09-25T00:12:50.141Z,94.5
2018-09-25T00:14:50.150Z,95.2
2018-09-25T00:16:50.348Z,95.1
2018-09-25T00:18:50.287Z,96.0
2018-09-25T00:20:50.346Z,95.9
2018-09-25T00:22:50.276Z,95.3
2018-09-25T00:24:50.334Z,95.7
2018-09-25T00:26:50.604Z,95.9
2018-09-25T00:28:50.582Z,96.5
2018-09-25T00:30:50.556Z,96.7
2018-09-25T00:32:50.509Z,96.4
2018-09-25T00:34:49.856Z,96.8
2018-09-25T00:36:50.150Z,97.0
2018-09-25T00:38:50.117Z,97.3
2018-09-25T00:40:50.100Z,97.2
2018-09-25T00:42:50.082Z,97.3
2018-09-25T00:44:50.009Z,98.0
2018-09-25T00:46:50.356Z,98.2
2018-09-25T00:48:50.339Z,98.3
2018-09-25T00:50:50.316Z,98.3
2018-09-25T00:52:50.433Z,98.6
2018-09-25T00:54:50.335Z,99.0
2018-09-25T00:56:50.478Z,98.5
2018-09-25T00:58:50.446Z,99.3
2018-09-25T01:00:50.486Z,99.2
2018-09-25T01:02:50.497Z,99.7
2018-09-25T01:04:50.748Z,100.0
2018-09-25T01:06:50.009Z,99.8
2018-09-25T01:08:50.032Z,99.9
2018-09-25T01:10:49.957Z,99.8
2018-09-25T01:12:49.958Z,99.9
2018-09-25T01:14:50.000Z,100.0
2018-09-25T01:16:50.054Z,99.9
2018-09-25T01:18:50.039Z,100.0
2018-09-25T01:20:50.054Z,100.0
2018-09-25T01:22:50.103Z,100.0
2018-09-25T01:24:50.031Z,100.0
2018-09-25T01:26:50.200Z,100.0
2018-09-25T01:28:50.200Z,100.0
2018-09-25T01:30:50.146Z,100.0
2018-09-25T01:32:50.123Z,100.0
2018-09-25T01:34:50.388Z,100.0
2018-09-25T01:36:50.524Z,100.0
2018-09-25T01:38:50.484Z,100.0
2018-09-25T01:40:50.531Z,100.0
2018-09-25T01:42:50.529Z,100.0
2018-09-25T01:44:50.513Z,100.0
2018-09-25T01:46:50.693Z,100.0
2018-09-25T01:48:50.630Z,100.0
2018-09-25T01:50:50.576Z,100.0
2018-09-25T01:52:50.653Z,100.0
2018-09-25T01:54:50.655Z,100.0
2018-09-25T01:56:49.897Z,100.0
2018-09-25T01:58:49.972Z,100.0
2018-09-25T02:00:49.979Z,100.0
2018-09-25T02:02:50.034Z,100.0
2018-09-25T02:04:50.337Z,100.0
2018-09-25T02:06:50.500Z,100.0
2018-09-25T02:08:50.453Z,100.0
2018-09-25T02:10:50.434Z,100.0
2018-09-25T02:12:50.412Z,100.0
2018-09-25T02:14:50.375Z,100.0
2018-09-25T02:16:50.502Z,100.0
2018-09-25T02:18:50.544Z,100.0
2018-09-25T02:20:50.488Z,100.0
2018-09-25T02:22:50.506Z,100.0
2018-09-25T02:24:50.492Z,100.0
2018-09-25T02:26:50.732Z,100.0
2018-09-25T02:28:49.919Z,100.0
2018-09-25T02:30:49.909Z,100.0
2018-09-25T02:32:49.925Z,100.0
2018-09-25T02:34:50.267Z,100.0
2018-09-25T02:36:50.470Z,100.0
2018-09-25T02:38:50.512Z,100.0
2018-09-25T02:40:50.518Z,100.0
2018-09-25T02:42:50.501Z,100.0
2018-09-25T02:44:50.507Z,100.0
2018-09-25T02:46:50.675Z,100.0
2018-09-25T02:48:50.728Z,100.0
2018-09-25T02:50:50.745Z,100.0
2018-09-25T02:52:50.671Z,100.0
2018-09-25T02:54:50.675Z,100.0
2018-09-25T02:56:49.922Z,100.0
2018-09-25T02:58:49.810Z,100.0
2018-09-25T03:00:49.896Z,100.0
2018-09-25T03:02:49.961Z,100.0
2018-09-25T03:04:50.459Z,100.0
2018-09-25T03:06:50.769Z,100.0
2018-09-25T03:08:50.739Z,100.0
2018-09-25T03:10:50.750Z,100.0
2018-09-25T03:12:50.764Z,100.0
2018-09-25T03:14:50.733Z,100.0
2018-09-25T03:16:49.916Z,100.0
2018-09-25T03:18:49.920Z,100.0
2018-09-25T03:20:49.949Z,100.0
2018-09-25T03:22:50.106Z,100.0
2018-09-25T03:24:50.127Z,100.0
2018-09-25T03:26:50.263Z,100.0
2018-09-25T03:28:50.287Z,100.0
2018-09-25T03:30:50.349Z,100.0
2018-09-25T03:32:50.414Z,100.0
2018-09-25T03:34:49.963Z,100.0
2018-09-25T03:36:50.203Z,100.0
2018-09-25T03:38:50.169Z,100.0
2018-09-25T03:40:50.142Z,100.0
2018-09-25T03:42:50.148Z,100.0
2018-09-25T03:44:50.179Z,100.0
2018-09-25T03:46:50.288Z,100.0
2018-09-25T03:48:50.217Z,100.0
2018-09-25T03:50:50.160Z,100.0
2018-09-25T03:52:50.141Z,100.0
2018-09-25T03:54:50.089Z,100.0
2018-09-25T03:56:50.212Z,100.0
2018-09-25T03:58:50.176Z,100.0
2018-09-25T04:00:50.221Z,100.0
2018-09-25T04:02:50.479Z,100.0
2018-09-25T04:04:50.728Z,100.0
2018-09-25T04:06:49.898Z,100.0
2018-09-25T04:08:49.998Z,100.0
2018-09-25T04:10:50.061Z,100.0
2018-09-25T04:12:50.245Z,100.0
2018-09-25T04:14:50.222Z,100.0
2018-09-25T04:16:50.445Z,100.0
2018-09-25T04:18:50.545Z,100.0
2018-09-25T04:20:50.520Z,100.0
2018-09-25T04:22:50.646Z,100.0
2018-09-25T04:24:50.651Z,100.0
2018-09-25T04:26:50.472Z,100.0
2018-09-25T04:28:50.569Z,100.0
2018-09-25T04:30:50.598Z,100.0
2018-09-25T04:32:50.557Z,100.0
2018-09-25T04:34:49.974Z,100.0
2018-09-25T04:36:50.277Z,100.0
2018-09-25T04:38:50.259Z,100.0
2018-09-25T04:40:50.265Z,100.0
2018-09-25T04:42:50.247Z,100.0
2018-09-25T04:44:50.262Z,100.0
2018-09-25T04:46:50.480Z,100.0
2018-09-25T04:48:50.468Z,100.0
2018-09-25T04:50:50.440Z,100.0
2018-09-25T04:52:50.467Z,100.0
2018-09-25T04:54:50.404Z,100.0
2018-09-25T04:56:50.437Z,100.0
2018-09-25T04:58:50.460Z,100.0
2018-09-25T05:00:50.360Z,100.0
2018-09-25T05:02:50.446Z,100.0
2018-09-25T05:04:50.764Z,100.0
2018-09-25T05:06:49.959Z,100.0
2018-09-25T05:08:50.031Z,100.0
2018-09-25T05:10:50.006Z,100.0
2018-09-25T05:12:50.035Z,100.0
2018-09-25T05:14:50.089Z,100.0
2018-09-25T05:16:50.167Z,100.0
2018-09-25T05:18:50.150Z,100.0
2018-09-25T05:20:50.160Z,100.0
2018-09-25T05:22:50.214Z,100.0
2018-09-25T05:24:50.579Z,100.0
2018-09-25T05:26:49.960Z,100.0
2018-09-25T05:28:49.963Z,100.0
2018-09-25T05:30:49.958Z,100.0
2018-09-25T05:32:50.030Z,100.0
2018-09-25T05:34:50.371Z,100.0
2018-09-25T05:36:50.122Z,100.0
2018-09-25T05:38:50.104Z,100.0
2018-09-25T05:40:50.322Z,100.0
2018-09-25T05:42:50.407Z,100.0
2018-09-25T05:44:50.425Z,100.0
2018-09-25T05:46:50.554Z,100.0
2018-09-25T05:48:51.502Z,100.0
2018-09-25T05:50:50.546Z,100.0
2018-09-25T05:52:50.595Z,100.0
2018-09-25T05:54:50.546Z,100.0
2018-09-25T05:56:50.618Z,100.0
2018-09-25T05:58:50.670Z,100.0
2018-09-25T06:00:50.806Z,100.0
2018-09-25T06:02:49.825Z,100.0
2018-09-25T06:04:50.280Z,100.0
2018-09-25T06:06:50.459Z,100.0
2018-09-25T06:08:50.525Z,100.0
2018-09-25T06:10:50.525Z,99.9
2018-09-25T06:12:50.579Z,99.6
2018-09-25T06:14:50.609Z,98.8
2018-09-25T06:16:49.790Z,98.8
2018-09-25T06:18:50.300Z,99.2
2018-09-25T06:20:50.337Z,98.6
2018-09-25T06:22:50.550Z,97.0
2018-09-25T06:24:50.668Z,98.4
2018-09-25T06:26:49.869Z,96.7
2018-09-25T06:28:50.310Z,96.6
2018-09-25T06:30:50.379Z,96.5
2018-09-25T06:32:50.570Z,95.9
2018-09-25T06:34:50.208Z,96.4
2018-09-25T06:36:50.379Z,96.5
2018-09-25T06:38:50.333Z,96.1
2018-09-25T06:40:50.758Z,95.1
2018-09-25T06:42:49.907Z,94.8
2018-09-25T06:44:49.950Z,81
2018-09-25T06:46:50.119Z,81
2018-09-25T06:48:50.057Z,81
2018-09-25T06:50:50.081Z,81
2018-09-25T06:52:50.133Z,81
2018-09-25T06:54:50.798Z,82
2018-09-25T06:56:50.079Z,82
2018-09-25T06:58:50.141Z,81
2018-09-25T07:00:50.545Z,81
2018-09-25T07:02:50.518Z,81
2018-09-25T07:04:50.637Z,81
2018-09-25T07:06:50.725Z,81
2018-09-25T07:08:50.742Z,81
2018-09-25T07:10:50.832Z,81
2018-09-25T07:12:49.881Z,81
2018-09-25T07:14:49.845Z,81
2018-09-25T07:16:50.191Z,80
2018-09-25T07:18:50.217Z,80
2018-09-25T07:20:50.605Z,80
2018-09-25T07:22:51.127Z,80
2018-09-25T07:24:50.344Z,80
2018-09-25T07:26:50.545Z,80
2018-09-25T07:28:50.568Z,80
2018-09-25T07:30:50.970Z,80
2018-09-25T07:32:50.141Z,80
2018-09-25T07:34:50.448Z,80
2018-09-25T07:36:50.600Z,79
2018-09-25T07:38:50.676Z,79
2018-09-25T07:40:50.653Z,78
2018-09-25T07:42:50.347Z,78
2018-09-25T07:44:50.346Z,78
2018-09-25T07:46:50.417Z,78
2018-09-25T07:48:50.384Z,78
2018-09-25T07:50:50.371Z,78
2018-09-25T07:52:50.314Z,78
2018-09-25T07:54:50.262Z,77
2018-09-25T07:56:50.466Z,77
2018-09-25T07:58:50.420Z,77
2018-09-25T08:00:50.352Z,77
2018-09-25T08:02:50.361Z,77
2018-09-25T08:04:50.749Z,76
2018-09-25T08:06:50.162Z,76
2018-09-25T08:08:50.253Z,76
2018-09-25T08:10:50.253Z,76
2018-09-25T08:12:50.225Z,76
2018-09-25T08:14:50.169Z,76
2018-09-25T08:16:50.355Z,76
2018-09-25T08:18:50.502Z,76
2018-09-25T08:20:50.411Z,76
2018-09-25T08:22:50.436Z,76
2018-09-25T08:24:50.430Z,75
2018-09-25T08:26:50.493Z,74
2018-09-25T08:28:50.564Z,74
2018-09-25T08:30:50.568Z,74
2018-09-25T08:32:50.555Z,73
2018-09-25T08:34:50.029Z,72
2018-09-25T08:36:50.211Z,70
2018-09-25T08:38:50.992Z,70
2018-09-25T08:40:50.070Z,70
2018-09-25T08:42:50.045Z,70
2018-09-25T08:44:49.998Z,69
2018-09-25T08:46:50.186Z,70
2018-09-25T08:48:50.175Z,69
2018-09-25T08:50:50.192Z,69
2018-09-25T08:52:50.142Z,69
2018-09-25T08:54:50.148Z,68
2018-09-25T08:56:50.250Z,68
2018-09-25T08:58:50.166Z,68
2018-09-25T09:00:50.335Z,68
2018-09-25T09:02:50.325Z,66
2018-09-25T09:04:50.548Z,67
2018-09-25T09:06:50.624Z,67
2018-09-25T09:08:50.714Z,67
2018-09-25T09:10:49.838Z,67
2018-09-25T09:12:49.926Z,66
2018-09-25T09:14:49.885Z,66
2018-09-25T09:16:50.101Z,66
2018-09-25T09:18:50.066Z,65
2018-09-25T09:20:50.032Z,65
2018-09-25T09:22:50.036Z,65
2018-09-25T09:24:50.126Z,63
2018-09-25T09:26:50.315Z,63
2018-09-25T09:28:50.273Z,62
2018-09-25T09:30:50.226Z,61
2018-09-25T09:32:50.275Z,61
2018-09-25T09:34:50.589Z,61
2018-09-25T09:36:49.936Z,59
2018-09-25T09:38:49.928Z,60
2018-09-25T09:40:50.098Z,58
2018-09-25T09:42:50.050Z,58
2018-09-25T09:44:50.177Z,58
2018-09-25T09:46:50.282Z,58
2018-09-25T09:48:50.250Z,59
2018-09-25T09:50:50.290Z,58
2018-09-25T09:52:50.286Z,58
2018-09-25T09:54:50.292Z,58
2018-09-25T09:56:50.565Z,58
2018-09-25T09:58:50.624Z,58
2018-09-25T10:00:50.588Z,57
2018-09-25T10:02:50.566Z,55
2018-09-25T10:04:49.896Z,55
2018-09-25T10:06:50.725Z,57
2018-09-25T10:08:49.881Z,56
2018-09-25T10:10:49.829Z,55
2018-09-25T10:12:49.886Z,56
2018-09-25T10:14:49.978Z,56
2018-09-25T10:16:50.207Z,56
2018-09-25T10:18:50.697Z,54
2018-09-25T10:20:50.638Z,54
2018-09-25T10:22:50.625Z,55
2018-09-25T10:24:50.625Z,54
2018-09-25T10:26:49.866Z,54
2018-09-25T10:28:49.830Z,53
2018-09-25T10:30:49.915Z,53
2018-09-25T10:32:49.847Z,54
2018-09-25T10:34:50.307Z,54
2018-09-25T10:36:50.482Z,54
2018-09-25T10:38:50.494Z,54
2018-09-25T10:40:50.797Z,55
2018-09-25T10:42:49.884Z,55
2018-09-25T10:44:49.872Z,55
2018-09-25T10:46:50.012Z,54
2018-09-25T10:48:49.981Z,53
2018-09-25T10:50:49.970Z,54
2018-09-25T10:52:50.048Z,54
2018-09-25T10:54:50.011Z,51.7
2018-09-25T10:56:50.222Z,53.5
2018-09-25T10:58:50.207Z,53.5
2018-09-25T11:00:50.208Z,55
2018-09-25T11:02:50.503Z,56
2018-09-25T11:04:49.856Z,55
2018-09-25T11:06:50.081Z,54
2018-09-25T11:08:50.018Z,53
2018-09-25T11:10:50.079Z,51
2018-09-25T11:12:50.069Z,51
2018-09-25T11:14:50.088Z,51
2018-09-25T11:16:50.191Z,51
2018-09-25T11:18:50.197Z,52
2018-09-25T11:20:50.214Z,53
2018-09-25T11:22:50.158Z,53
2018-09-25T11:24:50.071Z,53
2018-09-25T11:26:50.103Z,52
2018-09-25T11:28:50.130Z,52
2018-09-25T11:30:50.128Z,51
2018-09-25T11:32:50.113Z,52
2018-09-25T11:34:50.321Z,51
2018-09-25T11:36:50.360Z,52
2018-09-25T11:38:50.354Z,51
2018-09-25T11:40:50.577Z,51
2018-09-25T11:42:50.553Z,52
2018-09-25T11:44:50.550Z,51
2018-09-25T11:46:51.645Z,51
2018-09-25T11:48:49.982Z,49
2018-09-25T11:50:50.069Z,49
2018-09-25T11:52:50.406Z,50
2018-09-25T11:54:50.441Z,48
2018-09-25T11:56:50.610Z,47
2018-09-25T11:58:50.480Z,47
2018-09-25T12:00:50.467Z,47
2018-09-25T12:02:50.444Z,47
2018-09-25T12:04:50.593Z,47
2018-09-25T12:06:50.778Z,46
2018-09-25T12:08:49.891Z,46
2018-09-25T12:10:49.880Z,46
2018-09-25T12:12:49.930Z,45
2018-09-25T12:14:50.035Z,43
2018-09-25T12:16:50.014Z,43
2018-09-25T12:18:49.988Z,43
2018-09-25T12:20:49.974Z,44
2018-09-25T12:22:49.938Z,46
2018-09-25T12:24:50.056Z,46
2018-09-25T12:26:50.248Z,45
2018-09-25T12:28:50.314Z,44
2018-09-25T12:30:50.273Z,44
2018-09-25T12:32:50.564Z,44
2018-09-25T12:34:49.923Z,44
2018-09-25T12:36:50.148Z,43
2018-09-25T12:38:50.098Z,41
2018-09-25T12:40:50.332Z,43
2018-09-25T12:42:50.368Z,44
2018-09-25T12:44:50.283Z,44
2018-09-25T12:46:50.557Z,44
2018-09-25T12:48:50.587Z,44
2018-09-25T12:50:50.563Z,44
2018-09-25T12:52:50.545Z,43
2018-09-25T12:54:50.556Z,43
2018-09-25T12:56:50.601Z,43
2018-09-25T12:58:50.615Z,43
2018-09-25T13:00:50.574Z,41
2018-09-25T13:02:50.536Z,40
2018-09-25T13:04:49.913Z,40
2018-09-25T13:06:50.024Z,40
2018-09-25T13:08:49.979Z,40
2018-09-25T13:10:50.003Z,41
2018-09-25T13:12:50.012Z,41
2018-09-25T13:14:50.114Z,41
2018-09-25T13:16:50.161Z,41
2018-09-25T13:18:50.120Z,41
2018-09-25T13:20:50.091Z,42
2018-09-25T13:22:50.003Z,41
2018-09-25T13:24:49.993Z,40
2018-09-25T13:26:50.058Z,40
2018-09-25T13:28:50.033Z,40
2018-09-25T13:30:50.075Z,40
2018-09-25T13:32:50.044Z,40
2018-09-25T13:34:50.347Z,40
2018-09-25T13:36:50.473Z,41
2018-09-25T13:38:50.514Z,41
2018-09-25T13:40:50.411Z,42
2018-09-25T13:42:50.318Z,42
2018-09-25T13:44:50.336Z,42
2018-09-25T13:46:50.370Z,40
2018-09-25T13:48:50.302Z,41
2018-09-25T13:50:50.297Z,40
2018-09-25T13:52:50.328Z,40
2018-09-25T13:54:50.310Z,40
2018-09-25T13:56:50.410Z,41
2018-09-25T13:58:50.334Z,41
2018-09-25T14:00:50.348Z,41
2018-09-25T14:02:50.333Z,41
2018-09-25T14:04:50.612Z,41
2018-09-25T14:06:50.719Z,40
2018-09-25T14:08:50.737Z,39
2018-09-25T14:10:50.758Z,40
2018-09-25T14:12:49.790Z,40
2018-09-25T14:14:49.828Z,39
2018-09-25T14:16:49.963Z,39
2018-09-25T14:18:49.972Z,39
2018-09-25T14:20:49.921Z,39
2018-09-25T14:22:50.056Z,39
2018-09-25T14:24:50.347Z,39
2018-09-25T14:26:50.453Z,38
2018-09-25T14:28:50.430Z,38
2018-09-25T14:30:50.408Z,39
2018-09-25T14:32:50.559Z,38
2018-09-25T14:34:50.560Z,38
2018-09-25T14:36:50.726Z,38
2018-09-25T14:38:50.643Z,38
2018-09-25T14:40:50.572Z,38
2018-09-25T14:42:50.637Z,38
2018-09-25T14:44:50.636Z,39
2018-09-25T14:46:49.838Z,39
2018-09-25T14:48:50.576Z,39
2018-09-25T14:50:50.562Z,39
2018-09-25T14:52:50.539Z,39
2018-09-25T14:54:50.439Z,40
2018-09-25T14:56:50.641Z,39
2018-09-25T14:58:50.692Z,39
2018-09-25T15:00:51.104Z,39
2018-09-25T15:02:50.115Z,39
2018-09-25T15:04:50.418Z,39
2018-09-25T15:06:50.614Z,40
2018-09-25T15:08:50.506Z,40
2018-09-25T15:10:50.461Z,40
2018-09-25T15:12:50.427Z,39
2018-09-25T15:14:50.312Z,40
2018-09-25T15:16:50.555Z,40
2018-09-25T15:18:50.573Z,40
2018-09-25T15:20:50.190Z,40
2018-09-25T15:22:50.161Z,40
2018-09-25T15:24:50.055Z,40
2018-09-25T15:26:50.873Z,40
2018-09-25T15:28:50.304Z,39
2018-09-25T15:30:50.283Z,40
2018-09-25T15:32:50.358Z,40
2018-09-25T15:34:50.737Z,40
2018-09-25T15:36:49.925Z,40
2018-09-25T15:38:50.043Z,39
2018-09-25T15:40:50.297Z,37.0
2018-09-25T15:42:50.217Z,40.8
2018-09-25T15:44:50.130Z,39.6
2018-09-25T15:46:50.360Z,40.6
2018-09-25T15:48:50.286Z,41.0
2018-09-25T15:50:50.231Z,41.1
2018-09-25T15:52:50.235Z,39.3
2018-09-25T15:54:50.259Z,41.0
2018-09-25T15:56:50.374Z,41.2
2018-09-25T15:58:50.489Z,41.9
2018-09-25T16:00:50.452Z,41.0
2018-09-25T16:02:50.547Z,42.4
2018-09-25T16:04:50.736Z,41.2
2018-09-25T16:06:49.833Z,40.7
2018-09-25T16:08:49.862Z,41.0
2018-09-25T16:10:49.808Z,39.8
2018-09-25T16:12:49.835Z,41.7
2018-09-25T16:14:50.005Z,40.7
2018-09-25T16:16:50.160Z,43.5
2018-09-25T16:18:50.117Z,42.7
2018-09-25T16:20:50.092Z,43.3
2018-09-25T16:22:50.171Z,43.0
2018-09-25T16:24:50.128Z,42.7
2018-09-25T16:26:50.237Z,44.6
2018-09-25T16:28:50.203Z,45.6
2018-09-25T16:30:50.285Z,45.4
2018-09-25T16:32:50.233Z,44.6
2018-09-25T16:34:50.670Z,44.8
2018-09-25T16:36:49.850Z,45.3
2018-09-25T16:38:50.778Z,45.5
2018-09-25T16:40:49.805Z,45.5
2018-09-25T16:42:50.451Z,46.3
2018-09-25T16:44:50.501Z,47.6
2018-09-25T16:46:50.718Z,46.9
2018-09-25T16:48:50.770Z,49.6
2018-09-25T16:50:50.772Z,48.7
2018-09-25T16:52:49.858Z,50.4
2018-09-25T16:54:49.795Z,49.6
2018-09-25T16:56:50.102Z,49.2
2018-09-25T16:58:50.098Z,48.1
2018-09-25T17:00:50.049Z,47.9
2018-09-25T17:02:50.032Z,52.2
2018-09-25T17:04:50.249Z,52.7
2018-09-25T17:06:50.377Z,51.6
2018-09-25T17:08:50.362Z,50.6
2018-09-25T17:10:50.456Z,56.6
2018-09-25T17:12:50.500Z,57.4
2018-09-25T17:14:50.460Z,57.4
2018-09-25T17:16:49.794Z,59.3
2018-09-25T17:18:49.849Z,56.4
2018-09-25T17:20:49.804Z,58.8
2018-09-25T17:22:49.871Z,59.9
2018-09-25T17:24:49.906Z,58.7
2018-09-25T17:26:50.124Z,60.5
2018-09-25T17:28:50.145Z,58.6
2018-09-25T17:30:50.238Z,61.7
2018-09-25T17:32:50.223Z,61.5
2018-09-25T17:34:50.691Z,61.7
2018-09-25T17:36:49.983Z,61.5
2018-09-25T17:38:49.969Z,62.4
2018-09-25T17:40:50.042Z,62.8
2018-09-25T17:42:50.048Z,64.2
2018-09-25T17:44:50.134Z,60.9
2018-09-25T17:46:50.330Z,60.9
2018-09-25T17:48:50.282Z,65.9
2018-09-25T17:50:50.292Z,66.8
2018-09-25T17:52:50.261Z,66.4
2018-09-25T17:54:50.176Z,66.5
2018-09-25T17:56:50.237Z,65.8
2018-09-25T17:58:50.282Z,68.3
2018-09-25T18:00:50.221Z,67.2
2018-09-25T18:02:50.245Z,68.2
2018-09-25T18:04:50.494Z,67.6
2018-09-25T18:06:50.759Z,66.8
2018-09-25T18:08:49.787Z,69.8
2018-09-25T18:10:49.849Z,68.5
2018-09-25T18:12:49.844Z,68.2
2018-09-25T18:14:49.915Z,67.0
2018-09-25T18:16:50.096Z,67.3
2018-09-25T18:18:50.085Z,70.3
2018-09-25T18:20:50.227Z,70.8
2018-09-25T18:22:50.174Z,71.9
2018-09-25T18:24:50.190Z,70.7
2018-09-25T18:26:50.347Z,70.3
2018-09-25T18:28:50.418Z,70.8
2018-09-25T18:30:50.407Z,71.7
2018-09-25T18:32:50.347Z,71.9
2018-09-25T18:34:50.672Z,72.9
2018-09-25T18:36:50.648Z,72.1
2018-09-25T18:38:50.677Z,72.3
2018-09-25T18:40:50.753Z,73.5
2018-09-25T18:42:50.708Z,74.8
2018-09-25T18:44:50.687Z,72.9
2018-09-25T18:46:49.988Z,73.9
2018-09-25T18:48:50.034Z,73.4
2018-09-25T18:50:49.981Z,73.6
2018-09-25T18:52:50.023Z,73.0
2018-09-25T18:54:50.000Z,75.4
2018-09-25T18:56:50.198Z,74.5
2018-09-25T18:58:50.221Z,74.3
2018-09-25T19:00:50.239Z,73.3
2018-09-25T19:02:50.247Z,72.6
2018-09-25T19:04:50.769Z,72.7
2018-09-25T19:06:49.971Z,75.2
2018-09-25T19:08:50.043Z,74.7
2018-09-25T19:10:49.963Z,74.1
2018-09-25T19:12:49.962Z,73.7
2018-09-25T19:14:50.198Z,74.4
2018-09-25T19:16:50.334Z,74.6
2018-09-25T19:18:50.440Z,75.3
2018-09-25T19:20:50.366Z,76.4
2018-09-25T19:22:50.514Z,77.6
2018-09-25T19:24:50.511Z,76.9
2018-09-25T19:26:50.662Z,78.5
2018-09-25T19:28:50.779Z,77.4
2018-09-25T19:30:49.821Z,76.5
2018-09-25T19:32:49.807Z,78.0
2018-09-25T19:34:50.185Z,78.6
2018-09-25T19:36:50.251Z,77.6
2018-09-25T19:38:50.250Z,78.0
2018-09-25T19:40:50.219Z,79.1
2018-09-25T19:42:50.134Z,78.5
2018-09-25T19:44:50.591Z,79.5
2018-09-25T19:46:49.939Z,76.8
2018-09-25T19:48:49.891Z,77.1
2018-09-25T19:50:49.931Z,77.4
2018-09-25T19:52:49.968Z,78.5
2018-09-25T19:54:50.066Z,78.8
2018-09-25T19:56:50.166Z,78.8
2018-09-25T19:58:50.061Z,78.8
2018-09-25T20:00:50.056Z,80.2
2018-09-25T20:02:50.087Z,80.9
2018-09-25T20:04:50.294Z,81.2
2018-09-25T20:06:50.459Z,79.7
2018-09-25T20:08:50.401Z,83.0
2018-09-25T20:10:50.410Z,83.1
2018-09-25T20:12:50.911Z,82.3
2018-09-25T20:14:49.933Z,81.8
2018-09-25T20:16:50.112Z,82.1
2018-09-25T20:18:50.074Z,82.2
2018-09-25T20:20:50.054Z,82.1
2018-09-25T20:22:50.024Z,82.2
2018-09-25T20:24:50.205Z,82.6
2018-09-25T20:26:50.320Z,82.8
2018-09-25T20:28:50.315Z,82.3
2018-09-25T20:30:50.422Z,81.6
2018-09-25T20:32:50.461Z,83.5
2018-09-25T20:34:50.807Z,84.4
2018-09-25T20:36:50.217Z,83.1
2018-09-25T20:38:50.226Z,83.0
2018-09-25T20:40:50.227Z,82.5
2018-09-25T20:42:50.407Z,82.8
2018-09-25T20:44:50.410Z,82.8
2018-09-25T20:46:50.690Z,84.1
2018-09-25T20:48:50.674Z,84.0
2018-09-25T20:50:50.694Z,83.5
2018-09-25T20:52:50.609Z,84.0
2018-09-25T20:54:50.591Z,85.0
2018-09-25T20:56:50.753Z,83.7
2018-09-25T20:58:50.669Z,84.7
2018-09-25T21:00:50.730Z,85.3
2018-09-25T21:02:50.672Z,84.8
2018-09-25T21:04:49.947Z,86.4
2018-09-25T21:06:50.131Z,86.5
2018-09-25T21:08:50.100Z,87.6
2018-09-25T21:10:50.052Z,86.4
2018-09-25T21:12:50.079Z,87.5
2018-09-25T21:14:50.139Z,87.3
2018-09-25T21:16:50.273Z,87.7
2018-09-25T21:18:50.222Z,87.9
2018-09-25T21:20:50.173Z,87.9
2018-09-25T21:22:50.131Z,86.9
2018-09-25T21:24:50.116Z,86.9
2018-09-25T21:26:50.605Z,87.3
2018-09-25T21:28:50.599Z,88.5
2018-09-25T21:30:50.575Z,87.6
2018-09-25T21:32:50.743Z,87.1
2018-09-25T21:34:50.281Z,87.7
2018-09-25T21:36:50.372Z,87.1
2018-09-25T21:38:50.631Z,88.9
2018-09-25T21:40:50.635Z,88.6
2018-09-25T21:42:50.721Z,87.9
2018-09-25T21:44:50.911Z,89.8
2018-09-25T21:46:50.108Z,89.5
2018-09-25T21:48:50.616Z,89.9
2018-09-25T21:50:50.980Z,88.6
2018-09-25T21:52:50.129Z,88.1
2018-09-25T21:54:50.084Z,88.6
2018-09-25T21:56:50.640Z,88.2
2018-09-25T21:58:50.633Z,88.2
2018-09-25T22:00:50.574Z,88.3
2018-09-25T22:02:50.519Z,88.3
2018-09-25T22:04:49.802Z,89.1
2018-09-25T22:06:50.036Z,89.2
2018-09-25T22:08:50.041Z,90.5
2018-09-25T22:10:50.044Z,89.4
2018-09-25T22:12:50.039Z,90.0
2018-09-25T22:14:49.996Z,90.4
2018-09-25T22:16:50.048Z,91.0
2018-09-25T22:18:50.135Z,89.9
2018-09-25T22:20:50.141Z,89.3
2018-09-25T22:22:50.128Z,89.1
2018-09-25T22:24:50.597Z,90.0
2018-09-25T22:26:49.899Z,91.4
2018-09-25T22:28:49.948Z,91.6
2018-09-25T22:30:50.034Z,90.1
2018-09-25T22:32:50.712Z,91.3
2018-09-25T22:34:50.227Z,91.4
2018-09-25T22:36:50.287Z,90.7
2018-09-25T22:38:50.241Z,89.9
2018-09-25T22:40:50.255Z,90.9
2018-09-25T22:42:50.223Z,90.5
2018-09-25T22:44:50.239Z,91.9
2018-09-25T22:46:50.457Z,91.9
2018-09-25T22:48:50.459Z,91.0
2018-09-25T22:50:50.479Z,90.2
2018-09-25T22:52:50.462Z,90.1
2018-09-25T22:54:50.438Z,92.2
2018-09-25T22:56:50.584Z,92.5
2018-09-25T22:58:50.596Z,92.6
2018-09-25T23:00:50.528Z,92.5
2018-09-25T23:02:50.596Z,92.3
2018-09-25T23:04:49.974Z,91.7
2018-09-25T23:06:50.122Z,91.5
2018-09-25T23:08:50.165Z,91.8
2018-09-25T23:10:50.172Z,92.9
2018-09-25T23:12:50.155Z,91.9
2018-09-25T23:14:50.196Z,91.7
2018-09-25T23:16:50.336Z,92.8
2018-09-25T23:18:50.366Z,92.8
2018-09-25T23:20:50.457Z,93.9
2018-09-25T23:22:50.355Z,93.6
2018-09-25T23:24:50.365Z,93.5
2018-09-25T23:26:50.515Z,92.7
2018-09-25T23:28:50.458Z,92.8
2018-09-25T23:30:50.585Z,92.9
2018-09-25T23:32:50.687Z,93.7
2018-09-25T23:34:50.133Z,93.3
2018-09-25T23:36:50.822Z,93.2
2018-09-25T23:38:49.850Z,92.7
2018-09-25T23:40:49.859Z,93.0
2018-09-25T23:42:50.005Z,94.0
2018-09-25T23:44:50.497Z,94.4
2018-09-25T23:46:50.785Z,93.9
2018-09-25T23:48:50.043Z,94.4
2018-09-25T23:50:50.156Z,93.7
2018-09-25T23:52:50.136Z,94.5
2018-09-25T23:54:50.199Z,94.8
2018-09-25T23:56:50.558Z,94.4
2018-09-25T23:58:50.688Z,95.5
